createdAt,value
2022-12-03T00:01:45.453Z,87.00
2022-12-03T00:04:12.013Z,87.37
2022-12-03T00:06:38.592Z,87.80
2022-12-03T00:09:05.436Z,87.55
2022-12-03T00:11:32.429Z,87.38
2022-12-03T00:13:58.898Z,87.08
2022-12-03T00:16:25.823Z,87.18
2022-12-03T00:18:52.893Z,87.38
2022-12-03T00:21:20.004Z,87.58
2022-12-03T00:23:46.554Z,87.60
2022-12-03T00:26:13.426Z,87.62
2022-12-03T00:28:39.922Z,87.66
2022-12-03T00:31:06.524Z,88.05
2022-12-03T00:33:33.140Z,87.78
2022-12-03T00:35:59.634Z,87.60
2022-12-03T00:38:26.175Z,87.56
2022-12-03T00:40:52.663Z,87.69
2022-12-03T00:43:19.127Z,87.37
2022-12-03T00:45:45.626Z,87.40
2022-12-03T00:48:12.093Z,87.72
2022-12-03T00:50:38.579Z,87.54
2022-12-03T00:53:05.063Z,87.57
2022-12-03T00:55:31.570Z,87.37
2022-12-03T00:57:58.081Z,87.17
2022-12-03T01:00:25.409Z,87.24
2022-12-03T01:02:52.970Z,86.91
2022-12-03T01:05:20.362Z,87.20
2022-12-03T01:07:47.849Z,87.41
2022-12-03T01:10:14.685Z,87.51
2022-12-03T01:12:41.199Z,87.33
2022-12-03T01:15:08.515Z,86.90
2022-12-03T01:17:35.356Z,87.00
2022-12-03T01:20:02.353Z,87.12
2022-12-03T01:22:28.855Z,87.33
2022-12-03T01:24:55.723Z,87.39
2022-12-03T01:27:22.795Z,86.91
2022-12-03T01:29:49.302Z,87.19
2022-12-03T01:32:22.000Z,86.74
2022-12-03T01:34:56.116Z,86.70
2022-12-03T01:37:24.902Z,86.53
2022-12-03T01:39:52.218Z,86.42
2022-12-03T01:42:27.175Z,87.01
2022-12-03T01:44:56.625Z,87.17
2022-12-03T01:47:33.603Z,86.52
2022-12-03T01:50:04.473Z,86.19
2022-12-03T01:52:33.939Z,86.28
2022-12-03T01:55:02.704Z,86.14
2022-12-03T01:57:41.546Z,86.49
2022-12-03T02:00:22.768Z,86.03
2022-12-03T02:02:56.255Z,85.54
2022-12-03T02:05:26.300Z,84.66
2022-12-03T02:07:53.470Z,84.99
2022-12-03T02:10:25.484Z,85.62
2022-12-03T02:12:57.835Z,85.68
2022-12-03T02:15:24.958Z,86.05
2022-12-03T02:17:52.190Z,85.65
2022-12-03T02:20:19.724Z,86.14
2022-12-03T02:22:49.120Z,85.51
2022-12-03T02:25:21.217Z,85.70
2022-12-03T02:27:48.366Z,85.38
2022-12-03T02:30:18.962Z,85.70
2022-12-03T02:32:45.885Z,84.25
2022-12-03T02:35:19.496Z,85.50
2022-12-03T02:38:13.201Z,85.43
2022-12-03T02:40:40.683Z,85.23
2022-12-03T02:43:07.418Z,84.84
2022-12-03T02:45:38.716Z,85.09
2022-12-03T02:48:16.493Z,84.89
2022-12-03T02:50:53.100Z,84.38
2022-12-03T02:53:24.931Z,84.65
2022-12-03T02:55:53.262Z,84.58
2022-12-03T02:58:20.675Z,84.61
2022-12-03T03:00:49.448Z,84.89
2022-12-03T03:03:17.918Z,84.58
2022-12-03T03:05:45.565Z,84.55
2022-12-03T03:08:13.039Z,84.60
2022-12-03T03:10:41.629Z,84.60
2022-12-03T03:13:11.626Z,83.77
2022-12-03T03:15:39.689Z,83.67
2022-12-03T03:18:07.728Z,83.75
2022-12-03T03:20:35.030Z,83.92
2022-12-03T03:23:19.801Z,84.31
2022-12-03T03:25:50.451Z,84.39
2022-12-03T03:28:17.713Z,84.37
2022-12-03T03:30:44.727Z,84.34
2022-12-03T03:33:13.063Z,84.41
2022-12-03T03:35:40.196Z,84.06
2022-12-03T03:38:09.002Z,83.74
2022-12-03T03:40:37.087Z,83.58
2022-12-03T03:43:04.141Z,83.32
2022-12-03T03:45:30.805Z,83.87
2022-12-03T03:48:01.240Z,83.99
2022-12-03T03:50:31.433Z,84.21
2022-12-03T03:52:59.608Z,84.68
2022-12-03T03:55:26.469Z,84.57
2022-12-03T03:57:53.196Z,84.54
2022-12-03T04:00:19.921Z,84.61
2022-12-03T04:02:46.854Z,84.76
2022-12-03T04:05:19.228Z,84.67
2022-12-03T04:07:46.109Z,84.38
2022-12-03T04:10:36.668Z,84.11
2022-12-03T04:13:04.363Z,83.92
2022-12-03T04:15:31.382Z,84.16
2022-12-03T04:18:16.505Z,84.10
2022-12-03T04:20:43.114Z,84.49
2022-12-03T04:23:09.614Z,84.11
2022-12-03T04:25:54.805Z,83.95
2022-12-03T04:28:40.238Z,83.78
2022-12-03T04:31:25.950Z,83.14
2022-12-03T04:34:11.641Z,83.37
2022-12-03T04:36:38.279Z,83.47
2022-12-03T04:39:04.856Z,83.38
2022-12-03T04:41:31.348Z,83.45
2022-12-03T04:44:16.312Z,83.67
2022-12-03T04:46:42.838Z,83.84
2022-12-03T04:49:09.340Z,83.85
2022-12-03T04:51:36.013Z,83.75
2022-12-03T04:54:02.604Z,83.65
2022-12-03T04:56:29.142Z,83.46
2022-12-03T04:58:55.709Z,83.60
2022-12-03T05:01:22.608Z,83.44
2022-12-03T05:03:49.308Z,83.08
2022-12-03T05:06:15.834Z,83.22
2022-12-03T05:08:42.335Z,83.65
2022-12-03T05:11:08.807Z,83.70
2022-12-03T05:13:35.478Z,84.03
2022-12-03T05:16:01.939Z,84.11
2022-12-03T05:18:28.494Z,83.66
2022-12-03T05:20:54.987Z,83.92
2022-12-03T05:23:22.474Z,83.94
2022-12-03T05:25:49.050Z,83.92
2022-12-03T05:28:15.709Z,84.27
2022-12-03T05:30:42.365Z,84.11
2022-12-03T05:33:08.935Z,83.84
2022-12-03T05:35:35.414Z,83.53
2022-12-03T05:38:01.922Z,82.88
2022-12-03T05:40:28.617Z,83.62
2022-12-03T05:42:55.259Z,83.76
2022-12-03T05:45:33.440Z,83.91
2022-12-03T05:48:01.071Z,83.51
2022-12-03T05:50:30.117Z,83.39
2022-12-03T05:52:57.380Z,83.52
2022-12-03T05:55:24.334Z,84.04
2022-12-03T05:57:50.892Z,83.63
2022-12-03T06:00:28.919Z,83.39
2022-12-03T06:02:55.965Z,83.79
2022-12-03T06:05:23.346Z,83.53
2022-12-03T06:07:51.488Z,84.15
2022-12-03T06:10:22.489Z,84.08
2022-12-03T06:12:49.172Z,84.18
2022-12-03T06:15:16.067Z,84.20
2022-12-03T06:17:43.415Z,84.20
2022-12-03T06:20:13.848Z,84.39
2022-12-03T06:22:40.489Z,84.12
2022-12-03T06:25:07.788Z,84.35
2022-12-03T06:27:34.412Z,84.40
2022-12-03T06:30:00.906Z,84.19
2022-12-03T06:32:27.952Z,83.79
2022-12-03T06:34:54.651Z,84.26
2022-12-03T06:37:21.443Z,84.06
2022-12-03T06:39:47.972Z,84.34
2022-12-03T06:42:14.454Z,84.03
2022-12-03T06:44:41.491Z,83.46
2022-12-03T06:47:08.014Z,84.00
2022-12-03T06:49:34.831Z,83.49
2022-12-03T06:52:01.392Z,83.69
2022-12-03T06:54:27.940Z,83.91
2022-12-03T06:56:54.670Z,82.99
2022-12-03T06:59:21.188Z,82.77
2022-12-03T07:01:47.771Z,83.04
2022-12-03T07:04:14.318Z,82.76
2022-12-03T07:06:40.883Z,82.77
2022-12-03T07:09:07.452Z,83.29
2022-12-03T07:11:40.008Z,82.98
2022-12-03T07:14:08.007Z,83.13
2022-12-03T07:16:36.002Z,83.19
2022-12-03T07:19:03.544Z,83.00
2022-12-03T07:21:30.086Z,82.73
2022-12-03T07:23:56.576Z,83.04
2022-12-03T07:26:23.100Z,82.88
2022-12-03T07:28:49.627Z,83.20
2022-12-03T07:31:16.213Z,82.90
2022-12-03T07:33:42.918Z,82.66
2022-12-03T07:36:10.306Z,83.14
2022-12-03T07:38:37.034Z,83.64
2022-12-03T07:41:03.574Z,83.85
2022-12-03T07:43:30.200Z,83.98
2022-12-03T07:45:56.696Z,84.24
2022-12-03T07:48:23.281Z,84.43
2022-12-03T07:50:49.806Z,84.67
2022-12-03T07:53:16.483Z,85.10
2022-12-03T07:55:43.303Z,85.04
2022-12-03T07:58:09.766Z,85.45
2022-12-03T08:00:36.396Z,85.67
2022-12-03T08:03:03.153Z,85.66
2022-12-03T08:05:29.943Z,85.28
2022-12-03T08:07:56.814Z,85.09
2022-12-03T08:10:25.175Z,85.49
2022-12-03T08:12:51.703Z,85.45
2022-12-03T08:15:24.284Z,85.63
2022-12-03T08:17:58.727Z,85.73
2022-12-03T08:20:33.846Z,86.56
2022-12-03T08:23:06.690Z,86.47
2022-12-03T08:25:33.273Z,86.09
2022-12-03T08:28:35.679Z,86.77
2022-12-03T08:31:18.575Z,86.72
2022-12-03T08:33:46.293Z,86.72
2022-12-03T08:36:16.812Z,86.98
2022-12-03T08:38:51.059Z,87.20
2022-12-03T08:41:39.538Z,86.93
2022-12-03T08:44:36.743Z,87.14
2022-12-03T08:47:09.120Z,87.22
2022-12-03T08:49:36.935Z,87.41
2022-12-03T08:52:13.784Z,87.06
2022-12-03T08:54:41.332Z,86.92
2022-12-03T08:57:27.398Z,86.93
2022-12-03T08:59:58.957Z,87.43
2022-12-03T09:02:32.637Z,87.25
2022-12-03T09:05:13.374Z,86.70
2022-12-03T09:07:40.022Z,86.55
2022-12-03T09:10:07.510Z,86.43
2022-12-03T09:12:34.085Z,86.71
2022-12-03T09:15:01.362Z,86.55
2022-12-03T09:17:27.851Z,86.57
2022-12-03T09:19:54.626Z,86.56
2022-12-03T09:22:21.122Z,86.98
2022-12-03T09:24:47.696Z,86.92
2022-12-03T09:27:14.173Z,87.17
2022-12-03T09:29:40.764Z,86.78
2022-12-03T09:32:07.321Z,86.45
2022-12-03T09:34:34.856Z,86.94
2022-12-03T09:37:01.857Z,86.43
2022-12-03T09:39:28.360Z,86.92
2022-12-03T09:41:55.782Z,86.87
2022-12-03T09:44:22.454Z,87.21
2022-12-03T09:46:49.463Z,87.27
2022-12-03T09:49:18.279Z,87.26
2022-12-03T09:51:45.579Z,87.81
2022-12-03T09:54:23.159Z,87.29
2022-12-03T09:56:50.686Z,87.63
2022-12-03T09:59:17.559Z,86.88
2022-12-03T10:01:44.686Z,86.58
2022-12-03T10:04:11.679Z,87.10
2022-12-03T10:06:43.991Z,86.76
2022-12-03T10:09:18.297Z,86.60
2022-12-03T10:11:44.849Z,87.23
2022-12-03T10:14:15.487Z,86.45
2022-12-03T10:16:42.208Z,86.98
2022-12-03T10:19:26.158Z,86.88
2022-12-03T10:21:53.018Z,87.08
2022-12-03T10:24:29.028Z,86.69
2022-12-03T10:27:00.893Z,86.69
2022-12-03T10:29:33.894Z,86.64
2022-12-03T10:32:06.450Z,86.35
2022-12-03T10:34:38.949Z,85.70
2022-12-03T10:37:14.086Z,84.46
2022-12-03T10:39:59.460Z,84.70
2022-12-03T10:42:28.930Z,85.15
2022-12-03T10:45:07.694Z,85.55
2022-12-03T10:47:34.437Z,85.46
2022-12-03T10:50:04.745Z,85.68
2022-12-03T10:52:31.617Z,85.78
2022-12-03T10:54:58.338Z,85.38
2022-12-03T10:57:25.237Z,85.52
2022-12-03T10:59:51.781Z,85.73
2022-12-03T11:02:24.016Z,85.48
2022-12-03T11:04:51.916Z,85.63
2022-12-03T11:07:20.871Z,85.92
2022-12-03T11:09:50.097Z,85.59
2022-12-03T11:12:20.739Z,86.04
2022-12-03T11:15:05.255Z,85.80
2022-12-03T11:17:43.997Z,86.15
2022-12-03T11:20:22.993Z,86.23
2022-12-03T11:22:55.120Z,85.58
2022-12-03T11:25:24.609Z,85.89
2022-12-03T11:28:13.063Z,85.50
2022-12-03T11:30:48.914Z,85.19
2022-12-03T11:33:28.098Z,85.55
2022-12-03T11:36:03.850Z,85.56
2022-12-03T11:38:41.016Z,85.47
2022-12-03T11:41:13.508Z,85.84
2022-12-03T11:43:54.017Z,85.55
2022-12-03T11:46:22.366Z,85.39
2022-12-03T11:48:52.282Z,85.11
2022-12-03T11:51:22.090Z,85.08
2022-12-03T11:53:51.064Z,85.74
2022-12-03T11:56:21.234Z,85.53
2022-12-03T11:58:48.129Z,85.72
2022-12-03T12:01:16.361Z,85.77
2022-12-03T12:03:49.051Z,85.92
2022-12-03T12:06:17.896Z,85.52
2022-12-03T12:08:58.924Z,85.45
2022-12-03T12:11:34.189Z,85.34
2022-12-03T12:14:03.042Z,85.53
2022-12-03T12:16:51.868Z,85.74
2022-12-03T12:19:33.493Z,85.75
2022-12-03T12:22:20.138Z,85.52
2022-12-03T12:24:51.818Z,84.64
2022-12-03T12:27:29.046Z,85.25
2022-12-03T12:30:00.743Z,84.95
2022-12-03T12:32:30.624Z,85.11
2022-12-03T12:35:02.454Z,84.88
2022-12-03T12:37:47.368Z,84.68
2022-12-03T12:40:18.122Z,84.80
2022-12-03T12:42:53.634Z,85.29
2022-12-03T12:45:36.532Z,84.99
2022-12-03T12:48:21.292Z,84.98
2022-12-03T12:50:50.742Z,84.87
2022-12-03T12:53:24.214Z,84.74
2022-12-03T12:55:57.558Z,84.89
2022-12-03T12:58:25.488Z,85.12
2022-12-03T13:00:55.476Z,84.34
2022-12-03T13:03:26.083Z,84.45
2022-12-03T13:05:53.777Z,84.26
2022-12-03T13:08:30.713Z,84.75
2022-12-03T13:11:02.010Z,84.22
2022-12-03T13:13:30.303Z,84.57
2022-12-03T13:16:18.872Z,84.16
2022-12-03T13:18:49.470Z,84.53
2022-12-03T13:21:44.060Z,84.47
2022-12-03T13:24:32.064Z,84.36
2022-12-03T13:27:19.649Z,84.52
2022-12-03T13:29:49.723Z,84.52
2022-12-03T13:32:20.157Z,84.23
2022-12-03T13:34:47.559Z,84.35
2022-12-03T13:37:22.554Z,84.28
2022-12-03T13:39:55.180Z,84.54
2022-12-03T13:42:38.746Z,84.94
2022-12-03T13:45:25.806Z,84.91
2022-12-03T13:47:58.386Z,84.81
2022-12-03T13:50:43.962Z,84.59
2022-12-03T13:53:18.258Z,84.99
2022-12-03T13:55:48.090Z,85.08
2022-12-03T13:58:14.722Z,84.44
2022-12-03T14:00:41.478Z,84.91
2022-12-03T14:03:08.168Z,84.94
2022-12-03T14:05:34.818Z,84.68
2022-12-03T14:08:04.951Z,84.97
2022-12-03T14:10:31.959Z,85.19
2022-12-03T14:12:58.447Z,84.81
2022-12-03T14:15:27.535Z,85.22
2022-12-03T14:17:54.175Z,85.02
2022-12-03T14:20:21.103Z,85.37
2022-12-03T14:22:47.623Z,85.36
2022-12-03T14:25:14.207Z,85.52
2022-12-03T14:27:40.701Z,85.34
2022-12-03T14:30:07.876Z,85.65
2022-12-03T14:32:34.369Z,85.74
2022-12-03T14:35:05.140Z,85.78
2022-12-03T14:37:34.761Z,85.80
2022-12-03T14:40:03.735Z,85.95
2022-12-03T14:42:30.272Z,86.29
2022-12-03T14:44:57.439Z,86.16
2022-12-03T14:47:24.004Z,86.42
2022-12-03T14:49:51.736Z,86.56
2022-12-03T14:52:18.937Z,86.74
2022-12-03T14:54:45.651Z,86.63
2022-12-03T14:57:14.385Z,86.74
2022-12-03T14:59:42.505Z,86.77
2022-12-03T15:02:10.384Z,87.01
2022-12-03T15:04:37.532Z,86.97
2022-12-03T15:07:04.373Z,86.76
2022-12-03T15:09:30.954Z,87.36
2022-12-03T15:11:57.467Z,87.33
2022-12-03T15:14:24.008Z,87.07
2022-12-03T15:16:50.615Z,87.28
2022-12-03T15:19:17.200Z,87.67
2022-12-03T15:21:43.850Z,88.35
2022-12-03T15:24:10.804Z,88.03
2022-12-03T15:26:37.501Z,88.40
2022-12-03T15:29:04.108Z,88.48
2022-12-03T15:31:30.806Z,88.49
2022-12-03T15:33:57.326Z,88.41
2022-12-03T15:36:23.851Z,89.03
2022-12-03T15:38:50.349Z,89.22
2022-12-03T15:41:29.504Z,88.77
2022-12-03T15:44:01.523Z,89.13
2022-12-03T15:46:28.777Z,89.42
2022-12-03T15:48:55.851Z,89.23
2022-12-03T15:51:22.529Z,89.44
2022-12-03T15:53:49.223Z,89.79
2022-12-03T15:56:15.976Z,90.08
2022-12-03T15:58:42.895Z,90.06
2022-12-03T16:01:09.844Z,90.00
2022-12-03T16:03:36.885Z,89.87
2022-12-03T16:06:03.543Z,89.93
2022-12-03T16:08:30.131Z,90.08
2022-12-03T16:10:56.758Z,90.10
2022-12-03T16:13:23.302Z,90.05
2022-12-03T16:15:50.009Z,90.07
2022-12-03T16:18:16.632Z,90.34
2022-12-03T16:20:43.246Z,90.37
2022-12-03T16:23:09.835Z,90.54
2022-12-03T16:25:36.323Z,90.69
2022-12-03T16:28:03.242Z,90.69
2022-12-03T16:30:29.794Z,90.50
2022-12-03T16:32:57.114Z,90.63
2022-12-03T16:35:23.688Z,90.84
2022-12-03T16:37:50.146Z,90.62
2022-12-03T16:40:16.819Z,90.64
2022-12-03T16:42:43.738Z,90.78
2022-12-03T16:45:10.758Z,90.76
2022-12-03T16:47:37.633Z,90.29
2022-12-03T16:50:07.599Z,90.78
2022-12-03T16:52:35.013Z,90.29
2022-12-03T16:55:01.753Z,90.52
2022-12-03T16:57:33.432Z,90.34
2022-12-03T17:00:00.958Z,90.77
2022-12-03T17:02:27.786Z,91.07
2022-12-03T17:04:54.859Z,90.62
2022-12-03T17:07:21.376Z,90.82
2022-12-03T17:09:47.883Z,90.96
2022-12-03T17:12:14.916Z,91.35
2022-12-03T17:14:41.382Z,91.25
2022-12-03T17:17:08.251Z,91.43
2022-12-03T17:19:35.959Z,91.41
2022-12-03T17:22:02.433Z,91.38
2022-12-03T17:24:28.962Z,91.35
2022-12-03T17:26:55.466Z,91.28
2022-12-03T17:29:22.248Z,91.50
2022-12-03T17:31:48.866Z,91.40
2022-12-03T17:34:15.455Z,91.34
2022-12-03T17:36:41.936Z,91.09
2022-12-03T17:39:08.924Z,91.25
2022-12-03T17:41:35.457Z,91.86
2022-12-03T17:44:07.293Z,91.49
2022-12-03T17:46:36.451Z,91.60
2022-12-03T17:49:03.795Z,91.54
2022-12-03T17:51:30.681Z,91.81
2022-12-03T17:53:58.165Z,91.70
2022-12-03T17:56:25.605Z,91.50
2022-12-03T17:58:52.180Z,91.59
2022-12-03T18:01:18.833Z,91.50
2022-12-03T18:03:45.363Z,91.36
2022-12-03T18:06:11.900Z,91.47
2022-12-03T18:08:38.465Z,91.67
2022-12-03T18:11:05.202Z,91.55
2022-12-03T18:13:31.695Z,91.46
2022-12-03T18:15:58.235Z,91.29
2022-12-03T18:18:24.780Z,91.74
2022-12-03T18:20:53.284Z,91.34
2022-12-03T18:23:21.071Z,91.46
2022-12-03T18:25:47.932Z,91.53
2022-12-03T18:28:14.452Z,91.77
2022-12-03T18:30:40.943Z,91.73
2022-12-03T18:33:07.538Z,91.82
2022-12-03T18:35:34.136Z,91.78
2022-12-03T18:38:00.717Z,91.96
2022-12-03T18:40:27.351Z,91.52
2022-12-03T18:42:53.897Z,91.80
2022-12-03T18:45:21.687Z,91.90
2022-12-03T18:47:48.420Z,91.87
2022-12-03T18:50:15.035Z,92.08
2022-12-03T18:52:41.662Z,91.83
2022-12-03T18:55:12.421Z,91.80
2022-12-03T18:57:39.942Z,91.84
2022-12-03T19:00:13.242Z,91.66
2022-12-03T19:03:03.772Z,91.47
2022-12-03T19:05:26.776Z,91.41
2022-12-03T19:07:55.235Z,91.32
2022-12-03T19:10:23.115Z,91.03
2022-12-03T19:12:50.254Z,91.13
2022-12-03T19:15:17.161Z,91.00
2022-12-03T19:17:49.236Z,91.03
2022-12-03T19:20:16.016Z,90.96
2022-12-03T19:22:42.759Z,90.76
2022-12-03T19:25:09.445Z,90.88
2022-12-03T19:27:35.932Z,91.06
2022-12-03T19:30:02.455Z,90.94
2022-12-03T19:32:29.043Z,90.75
2022-12-03T19:34:55.657Z,90.55
2022-12-03T19:37:22.193Z,90.98
2022-12-03T19:39:53.263Z,90.67
2022-12-03T19:42:20.037Z,90.33
2022-12-03T19:44:46.620Z,90.47
2022-12-03T19:47:13.244Z,90.36
2022-12-03T19:49:39.780Z,90.66
2022-12-03T19:52:06.265Z,90.27
2022-12-03T19:54:32.955Z,90.44
2022-12-03T19:56:59.516Z,90.46
2022-12-03T19:59:26.088Z,90.60
2022-12-03T20:01:53.269Z,90.78
2022-12-03T20:04:20.107Z,90.37
2022-12-03T20:06:47.601Z,90.46
2022-12-03T20:09:18.258Z,90.03
2022-12-03T20:11:45.983Z,90.13
2022-12-03T20:14:15.533Z,90.30
2022-12-03T20:16:42.396Z,90.41
2022-12-03T20:19:12.069Z,90.07
2022-12-03T20:21:39.375Z,90.14
2022-12-03T20:24:07.729Z,90.05
2022-12-03T20:26:34.556Z,90.14
2022-12-03T20:29:01.571Z,90.24
2022-12-03T20:31:30.860Z,90.02
2022-12-03T20:34:00.628Z,90.21
2022-12-03T20:36:29.140Z,90.00
2022-12-03T20:38:56.957Z,90.05
2022-12-03T20:41:24.274Z,89.97
2022-12-03T20:43:51.627Z,89.63
2022-12-03T20:46:21.500Z,89.77
2022-12-03T20:48:48.262Z,89.62
2022-12-03T20:51:18.060Z,89.57
2022-12-03T20:53:45.231Z,89.44
2022-12-03T20:56:26.065Z,89.37
2022-12-03T20:58:53.752Z,89.59
2022-12-03T21:01:26.500Z,89.08
2022-12-03T21:03:55.856Z,89.26
2022-12-03T21:06:24.214Z,89.49
2022-12-03T21:08:55.147Z,89.43
2022-12-03T21:11:24.200Z,89.07
2022-12-03T21:13:53.053Z,89.50
2022-12-03T21:16:45.480Z,89.38
2022-12-03T21:19:10.072Z,89.76
2022-12-03T21:21:36.810Z,90.04
2022-12-03T21:24:03.526Z,90.14
2022-12-03T21:26:30.020Z,90.04
2022-12-03T21:28:56.512Z,89.87
2022-12-03T21:31:25.990Z,90.09
2022-12-03T21:33:53.949Z,90.35
2022-12-03T21:36:20.608Z,90.41
2022-12-03T21:38:48.254Z,90.43
2022-12-03T21:41:16.021Z,90.37
2022-12-03T21:43:43.403Z,90.33
2022-12-03T21:47:08.371Z,90.18
2022-12-03T21:49:00.286Z,90.28
2022-12-03T21:51:26.822Z,90.56
2022-12-03T21:53:53.373Z,90.41
2022-12-03T21:56:20.118Z,90.10
2022-12-03T21:58:47.121Z,90.30
2022-12-03T22:01:16.800Z,90.03
2022-12-03T22:03:43.705Z,90.07
2022-12-03T22:06:10.930Z,90.13
2022-12-03T22:08:39.020Z,90.41
2022-12-03T22:11:12.629Z,90.26
2022-12-03T22:13:39.741Z,90.61
2022-12-03T22:16:12.211Z,91.05
2022-12-03T22:18:39.333Z,91.27
2022-12-03T22:21:08.005Z,91.18
2022-12-03T22:23:35.288Z,90.83
2022-12-03T22:26:05.634Z,91.20
2022-12-03T22:28:32.855Z,91.08
2022-12-03T22:30:59.687Z,91.51
2022-12-03T22:33:26.438Z,91.38
2022-12-03T22:35:57.454Z,91.69
2022-12-03T22:38:24.435Z,91.72
2022-12-03T22:40:51.118Z,91.66
2022-12-03T22:43:18.814Z,91.59
2022-12-03T22:45:45.804Z,91.74
2022-12-03T22:48:12.730Z,91.57
2022-12-03T22:50:44.467Z,91.59
2022-12-03T22:53:12.133Z,91.95
2022-12-03T22:55:39.259Z,91.76
2022-12-03T22:58:07.000Z,91.91
2022-12-03T23:00:37.325Z,91.93
2022-12-03T23:03:04.781Z,92.35
2022-12-03T23:05:38.595Z,92.28
2022-12-03T23:08:06.917Z,92.09
2022-12-03T23:10:35.804Z,92.10
2022-12-03T23:13:02.466Z,92.15
2022-12-03T23:15:29.070Z,92.78
2022-12-03T23:17:55.894Z,92.42
2022-12-03T23:20:22.699Z,92.39
2022-12-03T23:22:49.373Z,92.26
2022-12-03T23:25:16.567Z,92.14
2022-12-03T23:27:43.716Z,92.05
2022-12-03T23:30:11.274Z,92.45
2022-12-03T23:32:38.478Z,92.20
2022-12-03T23:35:05.903Z,92.42
2022-12-03T23:37:32.461Z,92.36
2022-12-03T23:39:58.984Z,92.34
2022-12-03T23:42:25.545Z,92.52
2022-12-03T23:44:52.104Z,92.44
2022-12-03T23:47:18.584Z,92.62
2022-12-03T23:49:45.115Z,92.50
2022-12-03T23:52:11.627Z,92.53
2022-12-03T23:54:38.197Z,92.47
2022-12-03T23:57:04.804Z,92.92
2022-12-03T23:59:31.355Z,92.56
